Rankin Inlet Airport
CYRT : rendu visible

Aérodrome :











RETROUVEZ-NOUS SUR...

 
LOGIN :

S'inscrire | Disclaimer

   EN    FR    IT 

 









Légende :    VFR   VFR Marginal   IFR   IFR Intensif   IFR Très Intensif
Visi : 
Plafond : 
>= 8 km
>= 3000ft
5 à 8 km
1000 à 3000 ft
1500m à 5 km
500 à 1000 ft
800 à 1500m
200 à 500 ft
< 800m
< 200 ft
Symboles :   Orages  Brouillard  Fortes neiges  Fortes précipitations  Vent > 20 kt






- Altitude de l'aérodrome : 94 ft
- Code IATA : YRT


CYRT - Rankin Inlet

DERNIER METAR :
  • 251800Z 34012KT 15SM BKN013 BKN240 M01/M05 A2985 RMK SC5CI1 SLP111

METARs EXPIRÉS :
  • 251700Z 35011KT 15SM SCT014 BKN035 BKN240 M01/M05 A2983 RMK SC3SC2CI1 SLP104
  • 251600Z 35013KT 15SM FEW012 BKN050 M02/M05 A2980 RMK CF2SC5 SLP097

TAF TAF CYRT
Valide du 25 à 18h jusqu'au 26 à 06h UTC


251738Z 2518/2606 35012KT P6SM SCT015 BKN040
TEMPO 2518/2606 P6SM -SN SCT005 BKN015 BKN030 RMK NXT FCST BY 260000Z
FIR CZEG / Amérique du Nord



MET'MAP, la Météo Aéronautique d'un coup d'oeil ! - Copyright ORBIFLY Décembre 2007 - Disclaimer

ORBIFLY MET'MAP TEAM :

Programmation & Développement : Alexandra Zaïnal
Sur une idée originale de : Baudouin d'Aumeries
Assistance à la programmation : Marc-Olivier Méhu
Soutien technique & logistique : Manuel Goepfert

Contact : metmap@orbifly.com




SOURCES & CREDITS :

   NOAA       Earth
Advisory